createdAt,value
2022-11-27T00:00:08.417Z,3.93
2022-11-27T00:01:17.143Z,3.93
2022-11-27T00:02:19.296Z,3.92
2022-11-27T00:03:22.347Z,3.91
2022-11-27T00:04:24.362Z,3.90
2022-11-27T00:05:27.384Z,3.89
2022-11-27T00:06:31.535Z,3.88
2022-11-27T00:07:33.796Z,3.87
2022-11-27T00:08:38.261Z,3.86
2022-11-27T00:09:40.542Z,3.88
2022-11-27T00:10:43.677Z,3.87
2022-11-27T00:11:46.758Z,3.86
2022-11-27T00:12:48.777Z,3.85
2022-11-27T00:13:52.416Z,3.84
2022-11-27T00:14:55.737Z,3.85
2022-11-27T00:15:59.818Z,3.85
2022-11-27T00:17:01.814Z,3.83
2022-11-27T00:18:05.001Z,3.84
2022-11-27T00:19:07.352Z,3.84
2022-11-27T00:20:10.785Z,3.84
2022-11-27T00:21:14.508Z,3.84
2022-11-27T00:22:17.441Z,3.84
2022-11-27T00:23:19.896Z,3.83
2022-11-27T00:24:25.589Z,3.82
2022-11-27T00:25:27.563Z,3.81
2022-11-27T00:26:37.540Z,3.79
2022-11-27T00:27:40.922Z,3.79
2022-11-27T00:28:43.216Z,3.78
2022-11-27T00:29:46.134Z,3.77
2022-11-27T00:30:48.118Z,3.75
2022-11-27T00:31:52.272Z,3.75
2022-11-27T00:32:54.179Z,3.75
2022-11-27T00:33:58.342Z,3.74
2022-11-27T00:35:01.298Z,3.74
2022-11-27T00:36:03.671Z,3.73
2022-11-27T00:37:07.283Z,3.73
2022-11-27T00:38:09.793Z,3.73
2022-11-27T00:39:12.632Z,3.73
2022-11-27T00:40:16.337Z,3.72
2022-11-27T00:41:21.038Z,3.71
2022-11-27T00:42:22.952Z,3.71
2022-11-27T00:43:25.865Z,3.70
2022-11-27T00:44:28.062Z,3.71
2022-11-27T00:45:30.905Z,3.71
2022-11-27T00:46:35.572Z,3.70
2022-11-27T00:47:37.541Z,3.68
2022-11-27T00:48:40.403Z,3.69
2022-11-27T00:49:43.221Z,3.69
2022-11-27T00:50:45.183Z,3.67
2022-11-27T00:51:48.102Z,3.68
2022-11-27T00:52:50.079Z,3.68
2022-11-27T00:53:53.016Z,3.66
2022-11-27T00:54:54.922Z,3.66
2022-11-27T00:55:59.791Z,3.65
2022-11-27T00:57:02.663Z,3.64
2022-11-27T00:58:04.678Z,3.65
2022-11-27T00:59:08.297Z,3.64
2022-11-27T01:00:11.514Z,3.64
2022-11-27T01:01:20.232Z,3.63
2022-11-27T01:02:22.269Z,3.63
2022-11-27T01:03:25.886Z,3.62
2022-11-27T01:04:28.799Z,3.62
2022-11-27T01:05:30.707Z,3.63
2022-11-27T01:06:33.894Z,3.62
2022-11-27T01:07:35.875Z,3.62
2022-11-27T01:08:39.215Z,3.62
2022-11-27T01:09:41.334Z,3.62
2022-11-27T01:10:54.547Z,3.61
2022-11-27T01:11:59.244Z,3.61
2022-11-27T01:13:01.190Z,3.60
2022-11-27T01:14:07.174Z,3.59
2022-11-27T01:15:10.338Z,3.58
2022-11-27T01:16:15.251Z,3.57
2022-11-27T01:17:18.416Z,3.58
2022-11-27T01:18:20.342Z,3.57
2022-11-27T01:19:23.241Z,3.58
2022-11-27T01:20:25.171Z,3.57
2022-11-27T01:21:32.232Z,3.56
2022-11-27T01:22:34.344Z,3.55
2022-11-27T01:23:37.603Z,3.54
2022-11-27T01:24:39.934Z,3.54
2022-11-27T01:25:42.883Z,3.53
2022-11-27T01:26:45.682Z,3.53
2022-11-27T01:27:49.941Z,3.51
2022-11-27T01:28:52.917Z,3.50
2022-11-27T01:29:55.830Z,3.51
2022-11-27T01:30:58.219Z,3.50
2022-11-27T01:32:01.158Z,3.50
2022-11-27T01:33:03.254Z,3.49
2022-11-27T01:34:08.344Z,3.49
2022-11-27T01:35:10.221Z,3.47
2022-11-27T01:36:14.905Z,3.48
2022-11-27T01:37:16.819Z,3.47
2022-11-27T01:38:19.688Z,3.47
2022-11-27T01:39:24.130Z,3.46
2022-11-27T01:40:26.290Z,3.46
2022-11-27T01:41:31.537Z,3.46
2022-11-27T01:42:33.448Z,3.46
2022-11-27T01:43:45.935Z,3.45
2022-11-27T01:44:55.394Z,3.45
2022-11-27T01:45:57.373Z,3.43
2022-11-27T01:47:04.680Z,3.42
2022-11-27T01:48:06.718Z,3.41
2022-11-27T01:49:25.762Z,3.40
2022-11-27T01:50:31.440Z,3.40
2022-11-27T01:51:34.510Z,3.39
2022-11-27T01:52:41.132Z,3.38
2022-11-27T01:53:44.281Z,3.38
2022-11-27T01:54:52.506Z,3.36
2022-11-27T01:56:00.602Z,3.36
2022-11-27T01:57:08.044Z,3.34
2022-11-27T01:58:13.209Z,3.34
2022-11-27T01:59:18.300Z,3.33
2022-11-27T02:00:21.966Z,3.34
2022-11-27T02:01:26.066Z,3.33
2022-11-27T02:02:30.263Z,3.33
2022-11-27T02:03:33.483Z,3.33
2022-11-27T02:04:36.845Z,3.32
2022-11-27T02:05:38.856Z,3.32
2022-11-27T02:06:41.762Z,3.31
2022-11-27T02:07:44.060Z,3.31
2022-11-27T02:08:47.312Z,3.31
2022-11-27T02:09:49.574Z,3.31
2022-11-27T02:10:55.313Z,3.31
2022-11-27T02:12:06.824Z,3.31
2022-11-27T02:13:14.374Z,3.31
2022-11-27T02:14:25.136Z,3.30
2022-11-27T02:15:41.593Z,3.30
2022-11-27T02:16:52.409Z,3.29
2022-11-27T02:18:04.436Z,3.29
2022-11-27T02:19:15.407Z,3.29
2022-11-27T02:20:32.931Z,3.29
2022-11-27T02:21:39.654Z,3.29
2022-11-27T02:23:01.891Z,3.28
2022-11-27T02:24:48.514Z,3.28
2022-11-27T02:26:02.224Z,3.27
2022-11-27T02:27:21.750Z,3.27
2022-11-27T02:28:42.638Z,3.27
2022-11-27T02:29:51.445Z,3.27
2022-11-27T02:31:00.490Z,3.26
2022-11-27T02:32:10.930Z,3.25
2022-11-27T02:33:15.223Z,3.24
2022-11-27T02:34:25.721Z,3.24
2022-11-27T02:35:32.332Z,3.24
2022-11-27T02:36:38.929Z,3.23
2022-11-27T02:37:48.068Z,3.21
2022-11-27T02:38:57.000Z,3.21
2022-11-27T02:40:04.923Z,3.20
2022-11-27T02:41:12.950Z,3.19
2022-11-27T02:42:20.348Z,3.19
2022-11-27T02:43:27.262Z,3.19
2022-11-27T02:44:34.647Z,3.20
2022-11-27T02:45:42.040Z,3.19
2022-11-27T02:46:47.518Z,3.19
2022-11-27T02:47:51.002Z,3.19
2022-11-27T02:48:57.918Z,3.19
2022-11-27T02:50:00.664Z,3.18
2022-11-27T02:51:06.599Z,3.17
2022-11-27T02:52:11.803Z,3.17
2022-11-27T02:53:19.768Z,3.17
2022-11-27T02:54:26.920Z,3.15
2022-11-27T02:55:34.709Z,3.15
2022-11-27T02:56:38.830Z,3.14
2022-11-27T02:57:44.475Z,3.14
2022-11-27T02:58:48.619Z,3.13
2022-11-27T02:59:54.353Z,3.13
2022-11-27T03:00:58.056Z,3.12
2022-11-27T03:02:03.742Z,3.12
2022-11-27T03:03:10.251Z,3.11
2022-11-27T03:04:17.226Z,3.11
2022-11-27T03:05:23.658Z,3.11
2022-11-27T03:06:29.892Z,3.10
2022-11-27T03:07:38.562Z,3.11
2022-11-27T03:08:46.191Z,3.10
2022-11-27T03:09:52.461Z,3.09
2022-11-27T03:11:00.899Z,3.08
2022-11-27T03:12:05.083Z,3.07
2022-11-27T03:13:07.199Z,3.07
2022-11-27T03:14:11.739Z,3.06
2022-11-27T03:15:14.112Z,3.05
2022-11-27T03:16:24.765Z,3.04
2022-11-27T03:17:41.725Z,3.04
2022-11-27T03:18:52.489Z,3.04
2022-11-27T03:19:59.257Z,3.04
2022-11-27T03:21:09.628Z,3.04
2022-11-27T03:22:13.400Z,3.03
2022-11-27T03:23:15.270Z,3.02
2022-11-27T03:24:18.234Z,3.01
2022-11-27T03:25:20.278Z,3.01
2022-11-27T03:26:23.226Z,3.01
2022-11-27T03:27:32.134Z,3.00
2022-11-27T03:28:36.644Z,3.01
2022-11-27T03:29:46.851Z,3.00
2022-11-27T03:30:49.964Z,2.99
2022-11-27T03:31:53.492Z,3.01
2022-11-27T03:32:56.656Z,3.00
2022-11-27T03:33:59.069Z,2.99
2022-11-27T03:35:02.379Z,2.99
2022-11-27T03:36:12.000Z,2.99
2022-11-27T03:37:15.898Z,2.97
2022-11-27T03:38:17.889Z,2.96
2022-11-27T03:39:21.934Z,2.95
2022-11-27T03:40:30.331Z,2.93
2022-11-27T03:41:46.100Z,2.92
2022-11-27T03:42:59.925Z,2.91
2022-11-27T03:44:09.079Z,2.90
2022-11-27T03:45:20.789Z,2.90
2022-11-27T03:46:31.981Z,2.89
2022-11-27T03:47:52.365Z,2.90
2022-11-27T03:49:03.159Z,2.90
2022-11-27T03:50:28.244Z,2.89
2022-11-27T03:51:39.271Z,2.89
2022-11-27T03:52:52.629Z,2.90
2022-11-27T03:54:04.538Z,2.88
2022-11-27T03:55:13.412Z,2.87
2022-11-27T03:56:26.554Z,2.86
2022-11-27T03:57:35.247Z,2.86
2022-11-27T03:58:42.399Z,2.86
2022-11-27T03:59:47.307Z,2.85
2022-11-27T04:00:51.871Z,2.86
2022-11-27T04:01:53.900Z,2.86
2022-11-27T04:02:58.227Z,2.84
2022-11-27T04:04:00.301Z,2.84
2022-11-27T04:05:03.277Z,2.83
2022-11-27T04:06:05.354Z,2.83
2022-11-27T04:07:08.297Z,2.84
2022-11-27T04:08:10.175Z,2.83
2022-11-27T04:09:13.062Z,2.83
2022-11-27T04:10:15.264Z,2.83
2022-11-27T04:11:18.192Z,2.82
2022-11-27T04:12:20.029Z,2.82
2022-11-27T04:13:23.017Z,2.80
2022-11-27T04:14:25.896Z,2.80
2022-11-27T04:15:27.795Z,2.79
2022-11-27T04:16:30.743Z,2.79
2022-11-27T04:17:32.746Z,2.78
2022-11-27T04:18:37.265Z,2.77
2022-11-27T04:19:39.187Z,2.77
2022-11-27T04:20:42.306Z,2.76
2022-11-27T04:21:44.456Z,2.75
2022-11-27T04:22:47.318Z,2.75
2022-11-27T04:23:49.232Z,2.75
2022-11-27T04:24:52.989Z,2.73
2022-11-27T04:25:54.839Z,2.73
2022-11-27T04:26:57.683Z,2.72
2022-11-27T04:27:59.589Z,2.72
2022-11-27T04:29:02.430Z,2.73
2022-11-27T04:30:05.492Z,2.72
2022-11-27T04:31:08.433Z,2.71
2022-11-27T04:32:10.342Z,2.71
2022-11-27T04:33:13.207Z,2.70
2022-11-27T04:34:16.470Z,2.68
2022-11-27T04:35:19.321Z,2.71
2022-11-27T04:36:21.257Z,2.69
2022-11-27T04:37:24.145Z,2.68
2022-11-27T04:38:27.071Z,2.68
2022-11-27T04:39:29.014Z,2.67
2022-11-27T04:40:32.086Z,2.67
2022-11-27T04:41:34.010Z,2.67
2022-11-27T04:42:36.987Z,2.68
2022-11-27T04:43:38.903Z,2.66
2022-11-27T04:44:41.989Z,2.65
2022-11-27T04:45:44.535Z,2.64
2022-11-27T04:46:47.422Z,2.63
2022-11-27T04:47:49.352Z,2.63
2022-11-27T04:48:52.327Z,2.61
2022-11-27T04:49:55.679Z,2.61
2022-11-27T04:50:58.538Z,2.63
2022-11-27T04:52:00.385Z,2.62
2022-11-27T04:53:03.342Z,2.62
2022-11-27T04:54:05.385Z,2.63
2022-11-27T04:55:09.376Z,2.62
2022-11-27T04:56:11.234Z,2.60
2022-11-27T04:57:14.300Z,2.61
2022-11-27T04:58:16.142Z,2.61
2022-11-27T04:59:19.217Z,2.61
2022-11-27T05:00:21.479Z,2.60
2022-11-27T05:01:24.432Z,2.60
2022-11-27T05:02:26.417Z,2.60
2022-11-27T05:03:29.538Z,2.60
2022-11-27T05:04:31.638Z,2.59
2022-11-27T05:05:35.805Z,2.58
2022-11-27T05:06:37.700Z,2.57
2022-11-27T05:07:40.613Z,2.56
2022-11-27T05:08:42.642Z,2.56
2022-11-27T05:09:45.455Z,2.55
2022-11-27T05:10:47.684Z,2.55
2022-11-27T05:11:51.396Z,2.54
2022-11-27T05:12:53.257Z,2.55
2022-11-27T05:14:15.063Z,2.54
2022-11-27T05:15:18.087Z,2.54
2022-11-27T05:16:21.024Z,2.52
2022-11-27T05:17:23.054Z,2.52
2022-11-27T05:18:26.221Z,2.53
2022-11-27T05:19:29.826Z,2.52
2022-11-27T05:20:32.651Z,2.52
2022-11-27T05:21:35.892Z,2.51
2022-11-27T05:22:38.930Z,2.50
2022-11-27T05:23:40.765Z,2.50
2022-11-27T05:24:43.632Z,2.50
2022-11-27T05:25:45.509Z,2.49
2022-11-27T05:26:49.131Z,2.49
2022-11-27T05:27:51.018Z,2.48
2022-11-27T05:28:53.940Z,2.47
2022-11-27T05:29:55.814Z,2.47
2022-11-27T05:30:59.640Z,2.46
2022-11-27T05:32:01.856Z,2.46
2022-11-27T05:33:04.696Z,2.45
2022-11-27T05:34:06.985Z,2.44
2022-11-27T05:35:10.565Z,2.45
2022-11-27T05:36:12.466Z,2.45
2022-11-27T05:37:19.672Z,2.45
2022-11-27T05:38:21.980Z,2.44
2022-11-27T05:39:25.002Z,2.44
2022-11-27T05:40:26.868Z,2.42
2022-11-27T05:41:29.946Z,2.41
2022-11-27T05:42:31.852Z,2.40
2022-11-27T05:43:34.799Z,2.40
2022-11-27T05:44:37.961Z,2.39
2022-11-27T05:45:39.996Z,2.38
2022-11-27T05:46:44.590Z,2.37
2022-11-27T05:47:46.661Z,2.37
2022-11-27T05:48:49.980Z,2.37
2022-11-27T05:49:51.961Z,2.38
2022-11-27T05:50:54.887Z,2.37
2022-11-27T05:51:56.761Z,2.37
2022-11-27T05:53:00.975Z,2.37
2022-11-27T05:54:02.950Z,2.37
2022-11-27T05:55:06.643Z,2.36
2022-11-27T05:56:11.537Z,2.36
2022-11-27T05:57:14.409Z,2.34
2022-11-27T05:58:16.596Z,2.34
2022-11-27T05:59:19.680Z,2.34
2022-11-27T06:00:21.780Z,2.33
2022-11-27T06:01:24.839Z,2.31
2022-11-27T06:02:29.671Z,2.31
2022-11-27T06:03:31.891Z,2.30
2022-11-27T06:04:35.358Z,2.31
2022-11-27T06:05:38.750Z,2.31
2022-11-27T06:06:41.674Z,2.30
2022-11-27T06:07:44.074Z,2.29
2022-11-27T06:08:48.811Z,2.29
2022-11-27T06:09:50.635Z,2.29
2022-11-27T06:10:53.539Z,2.29
2022-11-27T06:11:55.628Z,2.28
2022-11-27T06:12:58.490Z,2.28
2022-11-27T06:14:00.338Z,2.27
2022-11-27T06:15:03.281Z,2.26
2022-11-27T06:16:07.132Z,2.27
2022-11-27T06:17:10.107Z,2.26
2022-11-27T06:18:12.976Z,2.25
2022-11-27T06:19:15.933Z,2.25
2022-11-27T06:20:20.148Z,2.24
2022-11-27T06:21:24.534Z,2.24
2022-11-27T06:22:26.439Z,2.25
2022-11-27T06:23:29.396Z,2.24
2022-11-27T06:25:47.412Z,2.23
2022-11-27T06:26:49.382Z,2.23
2022-11-27T06:27:52.384Z,2.22
2022-11-27T06:28:57.242Z,2.22
2022-11-27T06:29:59.093Z,2.21
2022-11-27T06:31:06.950Z,2.21
2022-11-27T06:32:10.017Z,2.21
2022-11-27T06:33:12.005Z,2.21
2022-11-27T06:34:14.887Z,2.22
2022-11-27T06:35:16.862Z,2.21
2022-11-27T06:36:20.617Z,2.20
2022-11-27T06:37:22.600Z,2.19
2022-11-27T06:38:25.453Z,2.21
2022-11-27T06:39:28.421Z,2.21
2022-11-27T06:40:30.350Z,2.21
2022-11-27T06:41:34.803Z,2.21
2022-11-27T06:42:36.712Z,2.19
2022-11-27T06:43:40.361Z,2.18
2022-11-27T06:44:42.347Z,2.19
2022-11-27T06:45:45.547Z,2.20
2022-11-27T06:46:47.444Z,2.20
2022-11-27T06:47:50.327Z,2.20
2022-11-27T06:48:54.339Z,2.21
2022-11-27T06:49:57.161Z,2.19
2022-11-27T06:51:00.132Z,2.18
2022-11-27T06:52:03.236Z,2.18
2022-11-27T06:53:05.090Z,2.16
2022-11-27T06:54:07.988Z,2.17
2022-11-27T06:55:09.816Z,2.17
2022-11-27T06:56:14.516Z,2.17
2022-11-27T06:57:17.770Z,2.17
2022-11-27T06:58:20.620Z,2.18
2022-11-27T06:59:23.552Z,2.18
2022-11-27T07:00:26.417Z,2.21
2022-11-27T07:01:31.016Z,2.26
2022-11-27T07:02:33.059Z,2.34
2022-11-27T07:03:36.668Z,2.41
2022-11-27T07:04:38.805Z,2.47
2022-11-27T07:05:41.915Z,2.50
2022-11-27T07:06:44.062Z,2.53
2022-11-27T07:07:47.044Z,2.53
2022-11-27T07:08:49.135Z,2.53
2022-11-27T07:09:52.013Z,2.50
2022-11-27T07:10:54.248Z,2.48
2022-11-27T07:11:57.202Z,2.45
2022-11-27T07:13:00.518Z,2.41
2022-11-27T07:14:05.587Z,2.39
2022-11-27T07:15:08.388Z,2.36
2022-11-27T07:16:13.173Z,2.36
2022-11-27T07:17:16.185Z,2.36
2022-11-27T07:18:18.045Z,2.36
2022-11-27T07:19:21.447Z,2.38
2022-11-27T07:20:23.386Z,2.38
2022-11-27T07:21:27.497Z,2.39
2022-11-27T07:22:29.384Z,2.40
2022-11-27T07:23:32.678Z,2.42
2022-11-27T07:24:35.706Z,2.44
2022-11-27T07:25:38.145Z,2.44
2022-11-27T07:26:41.034Z,2.44
2022-11-27T07:27:42.874Z,2.44
2022-11-27T07:28:47.842Z,2.45
2022-11-27T07:29:49.746Z,2.45
2022-11-27T07:30:56.360Z,2.45
2022-11-27T07:31:59.328Z,2.47
2022-11-27T07:33:01.283Z,2.46
2022-11-27T07:34:06.902Z,2.46
2022-11-27T07:35:11.815Z,2.46
2022-11-27T07:36:16.532Z,2.45
2022-11-27T07:37:18.521Z,2.45
2022-11-27T07:38:21.422Z,2.45
2022-11-27T07:39:46.283Z,2.43
2022-11-27T07:40:46.188Z,2.42
2022-11-27T07:41:48.976Z,2.42
2022-11-27T07:42:50.859Z,2.41
2022-11-27T07:43:55.144Z,2.41
2022-11-27T07:44:57.047Z,2.43
2022-11-27T07:46:00.417Z,2.44
2022-11-27T07:47:02.355Z,2.45
2022-11-27T07:48:05.398Z,2.47
2022-11-27T07:49:07.275Z,2.46
2022-11-27T07:50:11.346Z,2.48
2022-11-27T07:51:15.191Z,2.47
2022-11-27T07:52:18.032Z,2.47
2022-11-27T07:53:19.901Z,2.46
2022-11-27T07:54:22.820Z,2.46
2022-11-27T07:55:24.758Z,2.47
2022-11-27T07:56:28.490Z,2.46
2022-11-27T07:57:30.482Z,2.46
2022-11-27T07:58:33.520Z,2.45
2022-11-27T07:59:36.970Z,2.45
2022-11-27T08:00:39.981Z,2.45
2022-11-27T08:01:42.944Z,2.44
2022-11-27T08:02:45.793Z,2.44
2022-11-27T08:03:48.780Z,2.44
2022-11-27T08:04:50.670Z,2.43
2022-11-27T08:05:53.765Z,2.42
2022-11-27T08:06:57.605Z,2.43
2022-11-27T08:07:59.844Z,2.43
2022-11-27T08:09:02.925Z,2.41
2022-11-27T08:10:05.589Z,2.42
2022-11-27T08:11:15.322Z,2.42
2022-11-27T08:12:18.226Z,2.43
2022-11-27T08:13:20.121Z,2.43
2022-11-27T08:14:23.048Z,2.44
2022-11-27T08:15:26.302Z,2.44
2022-11-27T08:16:29.942Z,2.44
2022-11-27T08:17:31.910Z,2.45
2022-11-27T08:18:34.748Z,2.44
2022-11-27T08:19:37.559Z,2.44
2022-11-27T08:20:39.560Z,2.44
2022-11-27T08:21:42.488Z,2.46
2022-11-27T08:22:45.352Z,2.46
2022-11-27T08:23:47.239Z,2.48
2022-11-27T08:24:51.621Z,2.49
2022-11-27T08:25:53.532Z,2.54
2022-11-27T08:26:56.393Z,2.56
2022-11-27T08:27:58.317Z,2.57
2022-11-27T08:29:01.251Z,2.57
2022-11-27T08:30:04.010Z,2.57
2022-11-27T08:31:11.194Z,2.55
2022-11-27T08:32:14.286Z,2.55
2022-11-27T08:33:16.228Z,2.54
2022-11-27T08:34:19.109Z,2.53
2022-11-27T08:35:22.525Z,2.52
2022-11-27T08:36:26.982Z,2.52
2022-11-27T08:37:28.838Z,2.52
2022-11-27T08:38:31.682Z,2.51
2022-11-27T08:39:33.756Z,2.51
2022-11-27T08:40:36.729Z,2.51
2022-11-27T08:41:39.638Z,2.50
2022-11-27T08:42:41.541Z,2.51
2022-11-27T08:43:44.402Z,2.50
2022-11-27T08:44:46.372Z,2.50
2022-11-27T08:45:49.539Z,2.50
2022-11-27T08:46:53.850Z,2.51
2022-11-27T08:47:55.776Z,2.54
2022-11-27T08:49:00.135Z,2.56
2022-11-27T08:50:02.020Z,2.58
2022-11-27T08:51:06.986Z,2.60
2022-11-27T08:52:09.929Z,2.63
2022-11-27T08:53:12.504Z,2.65
2022-11-27T08:54:15.429Z,2.67
2022-11-27T08:55:17.316Z,2.69
2022-11-27T08:56:21.769Z,2.70
2022-11-27T08:57:23.676Z,2.72
2022-11-27T08:58:26.588Z,2.73
2022-11-27T08:59:29.746Z,2.75
2022-11-27T09:00:32.800Z,2.76
2022-11-27T09:01:35.863Z,2.76
2022-11-27T09:02:40.176Z,2.76
2022-11-27T09:03:42.128Z,2.75
2022-11-27T09:04:45.183Z,2.75
2022-11-27T09:05:47.128Z,2.73
2022-11-27T09:06:54.013Z,2.74
2022-11-27T09:07:59.809Z,2.76
2022-11-27T09:09:05.749Z,2.76
2022-11-27T09:10:08.596Z,2.76
2022-11-27T09:11:12.807Z,2.77
2022-11-27T09:12:15.687Z,2.78
2022-11-27T09:13:17.600Z,2.79
2022-11-27T09:14:20.458Z,2.79
2022-11-27T09:15:23.378Z,2.79
2022-11-27T09:16:25.440Z,2.79
2022-11-27T09:17:28.449Z,2.79
2022-11-27T09:18:32.683Z,2.79
2022-11-27T09:19:35.587Z,2.80
2022-11-27T09:20:37.617Z,2.78
2022-11-27T09:21:40.582Z,2.79
2022-11-27T09:22:42.553Z,2.79
2022-11-27T09:23:45.655Z,2.77
2022-11-27T09:24:48.557Z,2.79
2022-11-27T09:25:50.518Z,2.79
2022-11-27T09:26:53.346Z,2.80
2022-11-27T09:27:55.219Z,2.81
2022-11-27T09:28:59.817Z,2.80
2022-11-27T09:30:02.802Z,2.80
2022-11-27T09:31:06.439Z,2.81
2022-11-27T09:32:09.342Z,2.82
2022-11-27T09:33:11.771Z,2.83
2022-11-27T09:34:16.057Z,2.83
2022-11-27T09:35:18.083Z,2.83
2022-11-27T09:36:22.804Z,2.83
2022-11-27T09:37:24.631Z,2.83
2022-11-27T09:38:27.619Z,2.82
2022-11-27T09:39:33.704Z,2.82
2022-11-27T09:40:35.898Z,2.83
2022-11-27T09:41:45.031Z,2.82
2022-11-27T09:42:53.283Z,2.83
2022-11-27T09:44:00.650Z,2.81
2022-11-27T09:45:06.820Z,2.82
2022-11-27T09:46:17.604Z,2.82
2022-11-27T09:47:28.289Z,2.83
2022-11-27T09:48:36.431Z,2.80
2022-11-27T09:49:45.116Z,2.79
2022-11-27T09:50:51.431Z,2.78
2022-11-27T09:51:59.570Z,2.78
2022-11-27T09:53:07.738Z,2.79
2022-11-27T09:54:15.850Z,2.80
2022-11-27T09:55:24.714Z,2.79
2022-11-27T09:56:26.775Z,2.78
2022-11-27T09:57:34.296Z,2.77
2022-11-27T09:58:38.868Z,2.78
2022-11-27T09:59:49.001Z,2.77
2022-11-27T10:00:50.990Z,2.79
2022-11-27T10:01:53.985Z,2.82
2022-11-27T10:02:56.413Z,2.82
2022-11-27T10:03:59.802Z,2.83
2022-11-27T10:05:15.477Z,2.83
2022-11-27T10:06:28.201Z,2.86
2022-11-27T10:07:39.992Z,2.86
2022-11-27T10:08:49.212Z,2.87
2022-11-27T10:10:05.351Z,2.88
2022-11-27T10:11:19.520Z,2.88
2022-11-27T10:12:30.708Z,2.90
2022-11-27T10:13:49.358Z,2.90
2022-11-27T10:15:03.497Z,2.90
2022-11-27T10:16:17.143Z,2.91
2022-11-27T10:17:24.324Z,2.90
2022-11-27T10:18:35.400Z,2.92
2022-11-27T10:19:46.616Z,2.91
2022-11-27T10:20:54.359Z,2.91
2022-11-27T10:22:02.845Z,2.92
2022-11-27T10:23:15.729Z,2.92
2022-11-27T10:24:24.144Z,2.90
2022-11-27T10:25:32.844Z,2.88
2022-11-27T10:26:41.380Z,2.87
2022-11-27T10:27:51.542Z,2.87
2022-11-27T10:29:03.090Z,2.87
2022-11-27T10:30:13.728Z,2.87
2022-11-27T10:31:21.199Z,2.87
2022-11-27T10:32:54.016Z,2.88
2022-11-27T10:33:54.464Z,2.88
2022-11-27T10:35:01.433Z,2.88
2022-11-27T10:36:11.731Z,2.90
2022-11-27T10:37:18.798Z,2.91
2022-11-27T10:38:26.557Z,2.91
2022-11-27T10:39:36.290Z,2.92
2022-11-27T10:40:43.841Z,2.91
2022-11-27T10:41:51.646Z,2.92
2022-11-27T10:43:04.636Z,2.91
2022-11-27T10:44:23.392Z,2.89
2022-11-27T10:45:33.000Z,2.89
2022-11-27T10:46:39.636Z,2.91
2022-11-27T10:47:46.381Z,2.89
2022-11-27T10:48:49.250Z,2.90
2022-11-27T10:49:51.196Z,2.90
2022-11-27T10:50:54.033Z,2.90
2022-11-27T10:51:58.247Z,2.90
2022-11-27T10:53:04.803Z,2.91
2022-11-27T10:54:13.387Z,2.92
2022-11-27T10:55:24.817Z,2.94
2022-11-27T10:56:46.345Z,2.94
2022-11-27T10:58:04.243Z,2.95
2022-11-27T10:59:11.784Z,2.96
2022-11-27T11:00:21.100Z,2.96
2022-11-27T11:01:27.109Z,2.95
2022-11-27T11:02:31.733Z,2.95
2022-11-27T11:03:35.716Z,2.95
2022-11-27T11:04:38.867Z,2.95
2022-11-27T11:06:04.842Z,2.94
2022-11-27T11:07:25.859Z,2.91
2022-11-27T11:08:30.182Z,2.89
2022-11-27T11:09:34.703Z,2.89
2022-11-27T11:10:39.830Z,2.90
2022-11-27T11:11:41.760Z,2.89
2022-11-27T11:12:44.598Z,2.89
2022-11-27T11:13:48.434Z,2.89
2022-11-27T11:14:52.851Z,2.90
2022-11-27T11:15:57.592Z,2.89
2022-11-27T11:17:00.515Z,2.90
2022-11-27T11:18:02.519Z,2.91
2022-11-27T11:19:08.488Z,2.91
2022-11-27T11:20:19.088Z,2.91
2022-11-27T11:21:28.199Z,2.91
2022-11-27T11:22:32.045Z,2.92
2022-11-27T11:23:37.608Z,2.92
2022-11-27T11:24:42.412Z,2.91
2022-11-27T11:25:51.599Z,2.90
2022-11-27T11:26:56.667Z,2.88
2022-11-27T11:27:58.747Z,2.89
2022-11-27T11:29:06.036Z,2.88
2022-11-27T11:30:22.460Z,2.86
2022-11-27T11:31:32.329Z,2.88
2022-11-27T11:32:38.638Z,2.90
2022-11-27T11:33:50.957Z,2.91
2022-11-27T11:35:01.207Z,2.90
2022-11-27T11:36:11.226Z,2.90
2022-11-27T11:37:23.909Z,2.90
2022-11-27T11:38:31.225Z,2.91
2022-11-27T11:39:44.448Z,2.91
2022-11-27T11:40:59.390Z,2.90
2022-11-27T11:42:02.289Z,2.91
2022-11-27T11:43:09.997Z,2.91
2022-11-27T11:44:24.098Z,2.91
2022-11-27T11:45:31.324Z,2.92
2022-11-27T11:46:38.451Z,2.93
2022-11-27T11:47:45.194Z,2.91
2022-11-27T11:48:56.400Z,2.90
2022-11-27T11:50:00.076Z,2.89
2022-11-27T11:51:09.062Z,2.89
2022-11-27T11:52:23.782Z,2.89
2022-11-27T11:53:34.305Z,2.90
2022-11-27T11:54:50.473Z,2.91
2022-11-27T11:56:03.031Z,2.93
2022-11-27T11:57:17.814Z,2.93
2022-11-27T11:58:40.079Z,2.94
2022-11-27T11:59:52.765Z,2.95
2022-11-27T12:02:40.905Z,2.97
2022-11-27T12:03:59.511Z,2.97
2022-11-27T12:05:19.217Z,2.98
2022-11-27T12:06:38.985Z,2.97
2022-11-27T12:08:05.386Z,2.97
2022-11-27T12:09:23.381Z,2.97
2022-11-27T12:10:30.036Z,2.96
2022-11-27T12:11:43.310Z,2.95
2022-11-27T12:12:55.868Z,2.96
2022-11-27T12:14:08.323Z,2.95
2022-11-27T12:15:19.656Z,2.95
2022-11-27T12:16:36.749Z,2.96
2022-11-27T12:17:56.260Z,2.96
2022-11-27T12:19:18.627Z,2.97
2022-11-27T12:20:26.196Z,2.96
2022-11-27T12:21:38.727Z,2.96
2022-11-27T12:23:05.191Z,2.95
2022-11-27T12:24:26.616Z,2.93
2022-11-27T12:25:34.127Z,2.91
2022-11-27T12:26:47.956Z,2.91
2022-11-27T12:28:06.018Z,2.91
2022-11-27T12:29:40.892Z,2.93
2022-11-27T12:30:52.783Z,2.93
2022-11-27T12:32:21.250Z,2.93
2022-11-27T12:33:39.972Z,2.93
2022-11-27T12:34:58.351Z,2.94
2022-11-27T12:36:12.563Z,2.93
2022-11-27T12:37:30.059Z,2.94
2022-11-27T12:38:49.306Z,2.95
2022-11-27T12:40:09.337Z,2.94
2022-11-27T12:41:35.165Z,2.92
2022-11-27T12:42:46.562Z,2.92
2022-11-27T12:43:55.894Z,2.91
2022-11-27T12:45:05.400Z,2.90
2022-11-27T12:46:15.391Z,2.90
2022-11-27T12:47:25.375Z,2.91
2022-11-27T12:48:34.190Z,2.91
2022-11-27T12:49:43.783Z,2.91
2022-11-27T12:50:52.093Z,2.92
2022-11-27T12:51:59.981Z,2.92
2022-11-27T12:53:11.676Z,2.94
2022-11-27T12:54:20.365Z,2.93
2022-11-27T12:55:29.752Z,2.93
2022-11-27T12:56:37.394Z,2.92
2022-11-27T12:57:44.771Z,2.92
2022-11-27T12:58:51.244Z,2.88
2022-11-27T12:59:58.666Z,2.88
2022-11-27T13:01:07.222Z,2.89
2022-11-27T13:02:24.902Z,2.89
2022-11-27T13:03:35.631Z,2.89
2022-11-27T13:04:44.744Z,2.87
2022-11-27T13:05:51.320Z,2.87
2022-11-27T13:07:02.259Z,2.85
2022-11-27T13:08:12.975Z,2.84
2022-11-27T13:09:21.033Z,2.84
2022-11-27T13:10:32.188Z,2.86
2022-11-27T13:11:37.571Z,2.86
2022-11-27T13:12:48.320Z,2.86
2022-11-27T13:13:53.955Z,2.88
2022-11-27T13:15:01.810Z,2.89
2022-11-27T13:16:07.463Z,2.89
2022-11-27T13:17:16.231Z,2.91
2022-11-27T13:18:22.630Z,2.91
2022-11-27T13:19:29.701Z,2.92
2022-11-27T13:20:38.068Z,2.92
2022-11-27T13:21:42.420Z,2.91
2022-11-27T13:22:46.751Z,2.91
2022-11-27T13:23:49.234Z,2.91
2022-11-27T13:24:52.138Z,2.92
2022-11-27T13:25:58.102Z,2.91
2022-11-27T13:27:07.535Z,2.91
2022-11-27T13:28:22.140Z,2.92
2022-11-27T13:29:30.061Z,2.93
2022-11-27T13:30:36.626Z,2.93
2022-11-27T13:31:40.238Z,2.94
2022-11-27T13:32:48.987Z,2.93
2022-11-27T13:33:53.564Z,2.94
2022-11-27T13:34:58.734Z,2.94
2022-11-27T13:36:04.487Z,2.96
2022-11-27T13:37:09.424Z,2.96
2022-11-27T13:38:15.096Z,2.95
2022-11-27T13:39:24.055Z,2.95
2022-11-27T13:40:31.746Z,2.96
2022-11-27T13:41:40.065Z,2.95
2022-11-27T13:42:46.024Z,2.96
2022-11-27T13:43:50.244Z,2.94
2022-11-27T13:44:56.416Z,2.95
2022-11-27T13:46:05.360Z,2.93
2022-11-27T13:47:13.037Z,2.89
2022-11-27T13:48:33.182Z,2.88
2022-11-27T13:49:37.915Z,2.88
2022-11-27T13:50:45.378Z,2.88
2022-11-27T13:51:48.365Z,2.89
2022-11-27T13:52:54.710Z,2.90
2022-11-27T13:54:09.788Z,2.91
2022-11-27T13:55:24.226Z,2.91
2022-11-27T13:56:30.710Z,2.91
2022-11-27T13:57:35.364Z,2.90
2022-11-27T13:58:39.864Z,2.82
2022-11-27T13:59:43.220Z,2.78
2022-11-27T14:00:45.779Z,2.77
2022-11-27T14:01:59.729Z,2.76
2022-11-27T14:03:02.233Z,2.78
2022-11-27T14:04:09.708Z,2.78
2022-11-27T14:05:13.700Z,2.80
2022-11-27T14:06:24.917Z,2.82
2022-11-27T14:07:37.860Z,2.82
2022-11-27T14:08:39.933Z,2.84
2022-11-27T14:09:46.625Z,2.84
2022-11-27T14:10:52.987Z,2.86
2022-11-27T14:11:56.930Z,2.86
2022-11-27T14:13:04.129Z,2.86
2022-11-27T14:14:15.115Z,2.87
2022-11-27T14:15:24.488Z,2.88
2022-11-27T14:16:30.689Z,2.88
2022-11-27T14:17:41.498Z,2.88
2022-11-27T14:18:51.151Z,2.90
2022-11-27T14:20:01.735Z,2.90
2022-11-27T14:21:05.719Z,2.91
2022-11-27T14:22:14.960Z,2.92
2022-11-27T14:23:28.570Z,2.91
2022-11-27T14:24:43.837Z,2.92
2022-11-27T14:25:46.243Z,2.92
2022-11-27T14:26:49.195Z,2.92
2022-11-27T14:27:59.878Z,2.93
2022-11-27T14:29:04.297Z,2.93
2022-11-27T14:30:23.711Z,2.93
2022-11-27T14:31:29.802Z,2.93
2022-11-27T14:32:36.763Z,2.91
2022-11-27T14:34:07.285Z,2.92
2022-11-27T14:35:20.907Z,2.91
2022-11-27T14:36:26.001Z,2.92
2022-11-27T14:37:28.685Z,2.92
2022-11-27T14:38:34.331Z,2.89
2022-11-27T14:39:38.677Z,2.89
2022-11-27T14:40:41.760Z,2.83